Time;durP1;ratioP1;P1;durP2;ratioP2;P2;SDS_P1;SDS_P2;PMS_P1;PMS_P2;Temp;Humidity;BMP_temperature;BMP_pressure;BME280_temperature;BME280_humidity;BME280_pressure;Samples;Min_cycle;Max_cycle;Signal;HPM_P1;HPM_P2
2021/12/09 00:01:48;;;;;;;;;2.75;1.75;;;;;3.65;89.05;99668.28;5094722;27;46460;-63
2021/12/09 00:04:18;;;;;;;;;2.25;1.25;;;;;3.64;88.96;99663.97;5100828;27;45351;-64
2021/12/09 00:06:44;;;;;;;;;5.00;2.25;;;;;3.61;89.87;99658.84;5099125;27;45418;-64
2021/12/09 00:09:15;;;;;;;;;2.00;2.00;;;;;3.60;89.73;99663.22;5089816;27;45246;-66
2021/12/09 00:11:46;;;;;;;;;2.00;2.00;;;;;3.60;89.85;99659.75;5079903;27;47032;-64
2021/12/09 00:14:24;;;;;;;;;3.50;3.00;;;;;3.58;90.07;99654.59;5095142;27;45434;-65
2021/12/09 00:16:53;;;;;;;;;1.75;1.00;;;;;3.58;89.57;99656.34;5086689;27;45385;-66
2021/12/09 00:19:18;;;;;;;;;3.00;1.00;;;;;3.55;89.72;99654.69;5087437;27;45396;-63
2021/12/09 00:21:44;;;;;;;;;1.50;1.50;;;;;3.55;89.80;99657.28;5076941;27;45560;-64
2021/12/09 00:24:10;;;;;;;;;5.25;2.00;;;;;3.56;90.16;99659.00;5077211;28;45464;-64
2021/12/09 00:26:35;;;;;;;;;2.00;2.00;;;;;3.56;89.53;99663.31;5080781;27;45355;-64
2021/12/09 00:29:01;;;;;;;;;3.00;1.00;;;;;3.55;89.63;99672.91;5076177;27;45353;-61
2021/12/09 00:31:26;;;;;;;;;3.00;1.00;;;;;3.55;89.96;99659.03;5076406;27;45487;-64
2021/12/09 00:33:54;;;;;;;;;4.00;2.00;;;;;3.51;89.51;99655.66;5074643;28;45512;-65
2021/12/09 00:36:27;;;;;;;;;2.50;2.50;;;;;3.55;90.11;99659.03;5076363;27;45653;-64
2021/12/09 00:38:54;;;;;;;;;2.75;1.75;;;;;3.55;89.83;99659.91;5077382;27;45319;-61
2021/12/09 00:41:19;;;;;;;;;2.00;0.75;;;;;3.55;89.79;99657.28;5080758;27;45998;-64
2021/12/09 00:43:45;;;;;;;;;2.00;2.00;;;;;3.56;89.59;99663.31;5075705;27;45536;-64
2021/12/09 00:46:11;;;;;;;;;1.00;1.00;;;;;3.53;89.80;99655.59;5074107;27;45528;-62
2021/12/09 00:48:36;;;;;;;;;3.25;1.50;;;;;3.55;90.78;99669.41;5074779;27;45761;-62
2021/12/09 00:51:04;;;;;;;;;1.75;1.75;;;;;3.56;90.41;99668.53;5074761;28;45397;-63
2021/12/09 00:53:30;;;;;;;;;1.50;1.00;;;;;3.56;90.75;99666.81;5075652;27;45518;-64
2021/12/09 00:55:56;;;;;;;;;2.00;1.75;;;;;3.59;90.83;99674.53;5076491;27;45320;-66
2021/12/09 00:58:21;;;;;;;;;1.00;1.00;;;;;3.60;90.22;99680.56;5076562;27;45623;-63
2021/12/09 01:00:47;;;;;;;;;1.00;1.00;;;;;3.63;90.31;99683.94;5075458;27;46264;-62
2021/12/09 01:03:13;;;;;;;;;2.25;1.00;;;;;3.65;90.15;99676.09;5074685;28;45457;-62
2021/12/09 01:05:38;;;;;;;;;2.50;1.25;;;;;3.67;90.43;99673.47;5075950;28;45223;-66
2021/12/09 01:08:05;;;;;;;;;2.50;1.00;;;;;3.71;91.06;99675.09;5076734;27;45238;-63
2021/12/09 01:10:31;;;;;;;;;0.00;0.00;;;;;3.75;90.90;99681.91;5085019;27;46242;-64
2021/12/09 01:12:57;;;;;;;;;1.75;1.75;;;;;3.75;90.34;99681.91;5074995;28;45416;-64
2021/12/09 01:15:23;;;;;;;;;1.00;1.00;;;;;3.72;90.12;99669.00;5075621;27;45431;-63
2021/12/09 01:17:49;;;;;;;;;2.25;1.00;;;;;3.79;90.86;99668.81;5074426;27;45332;-63
2021/12/09 01:20:17;;;;;;;;;3.50;2.00;;;;;3.82;90.35;99667.84;5073948;27;46316;-61
2021/12/09 01:22:43;;;;;;;;;3.00;2.50;;;;;3.81;89.75;99679.16;5075673;27;45321;-63
2021/12/09 01:25:15;;;;;;;;;3.50;1.00;;;;;3.80;89.62;99670.50;5075556;28;45266;-61
2021/12/09 01:27:45;;;;;;;;;2.00;1.00;;;;;3.83;90.06;99690.38;5076056;27;45355;-62
2021/12/09 01:30:16;;;;;;;;;0.00;0.00;;;;;3.80;89.77;99680.03;5075298;27;45448;-64
2021/12/09 01:32:48;;;;;;;;;2.50;2.00;;;;;3.84;90.24;99702.47;5075901;28;45185;-65
2021/12/09 01:35:15;;;;;;;;;2.00;2.00;;;;;3.84;90.25;99696.44;5075848;27;45329;-64
2021/12/09 01:37:41;;;;;;;;;6.00;1.00;;;;;3.83;89.22;99695.56;5075612;27;45500;-64
2021/12/09 01:40:08;;;;;;;;;6.00;1.00;;;;;3.86;89.87;99700.69;5075213;27;45911;-64
2021/12/09 01:42:34;;;;;;;;;4.00;2.00;;;;;3.86;89.30;99702.47;5076161;27;45219;-63
2021/12/09 01:44:59;;;;;;;;;0.00;0.00;;;;;3.86;89.93;99690.28;5077048;27;45322;-64
2021/12/09 01:47:25;;;;;;;;;2.00;1.00;;;;;3.91;89.52;99696.22;5085803;27;45365;-64
2021/12/09 01:49:50;;;;;;;;;2.00;2.00;;;;;3.94;89.46;99701.34;5084666;27;45402;-63
2021/12/09 01:52:15;;;;;;;;;1.25;0.75;;;;;3.89;89.07;99682.41;5079809;27;45309;-63
2021/12/09 01:54:41;;;;;;;;;3.00;2.00;;;;;4.00;89.71;99713.34;5079059;27;45201;-64
2021/12/09 01:57:07;;;;;;;;;2.00;1.75;;;;;4.02;89.19;99718.50;5065391;28;45305;-62
2021/12/09 01:59:33;;;;;;;;;4.50;0.50;;;;;4.04;89.27;99720.19;5079961;27;45457;-62
2021/12/09 02:01:59;;;;;;;;;2.50;2.50;;;;;4.05;88.69;99708.88;5078730;27;45285;-61
2021/12/09 02:04:25;;;;;;;;;1.50;1.00;;;;;4.06;88.64;99717.50;5078955;27;45295;-64
2021/12/09 02:06:52;;;;;;;;;1.00;1.00;;;;;4.08;88.48;99718.31;5078771;27;45413;-64
2021/12/09 02:09:18;;;;;;;;;0.50;0.00;;;;;4.08;88.25;99713.13;5079231;27;46286;-61
2021/12/09 02:11:43;;;;;;;;;1.00;1.00;;;;;4.05;88.29;99713.22;5081566;27;45302;-64
2021/12/09 02:14:09;;;;;;;;;2.50;1.00;;;;;4.02;88.77;99701.16;5079516;27;45219;-63
2021/12/09 02:16:36;;;;;;;;;3.00;1.00;;;;;4.09;88.61;99709.63;5077060;27;45386;-62
2021/12/09 02:19:03;;;;;;;;;0.00;0.00;;;;;4.10;88.12;99706.13;5078098;27;45313;-62
2021/12/09 02:21:32;;;;;;;;;2.50;1.00;;;;;4.05;88.02;99700.19;5078370;27;45641;-63
2021/12/09 02:24:04;;;;;;;;;2.00;0.25;;;;;4.07;88.43;99703.59;5077734;27;45427;-66
2021/12/09 02:26:34;;;;;;;;;0.50;0.50;;;;;4.01;87.96;99696.84;5078734;27;45440;-62
2021/12/09 02:29:00;;;;;;;;;2.00;0.75;;;;;4.12;88.19;99706.09;5078263;27;47425;-63
2021/12/09 02:31:28;;;;;;;;;3.00;1.00;;;;;4.10;88.78;99703.53;5076871;27;45351;-64
2021/12/09 02:33:54;;;;;;;;;2.25;0.00;;;;;4.11;88.28;99720.00;5078026;27;45323;-66
2021/12/09 02:36:20;;;;;;;;;0.75;0.75;;;;;4.12;88.54;99717.34;5078473;27;45425;-63
2021/12/09 02:38:47;;;;;;;;;0.75;0.75;;;;;4.13;88.22;99716.44;5077911;28;46095;-64
2021/12/09 02:41:17;;;;;;;;;3.25;1.50;;;;;4.14;88.12;99718.16;5078414;27;45260;-64
2021/12/09 02:43:46;;;;;;;;;3.75;2.00;;;;;4.16;88.50;99720.72;5082231;27;45311;-64
2021/12/09 02:46:13;;;;;;;;;1.75;1.00;;;;;4.16;88.74;99721.56;5078049;27;45573;-63
2021/12/09 02:48:38;;;;;;;;;1.25;1.25;;;;;4.18;87.96;99721.53;5077618;27;45496;-64
2021/12/09 02:51:05;;;;;;;;;1.50;1.25;;;;;4.19;88.40;99718.03;5079749;27;45255;-64
2021/12/09 02:53:32;;;;;;;;;2.00;1.00;;;;;4.22;88.44;99717.97;5077873;27;45369;-62
2021/12/09 02:55:58;;;;;;;;;1.00;1.00;;;;;4.23;88.69;99717.06;5078181;27;45490;-64
2021/12/09 02:58:23;;;;;;;;;1.00;1.00;;;;;4.24;88.40;99709.22;5077459;27;46201;-62
2021/12/09 03:01:00;;;;;;;;;2.75;1.00;;;;;4.24;89.02;99717.03;5077468;27;45347;-63
2021/12/09 03:03:26;;;;;;;;;2.75;2.00;;;;;4.22;88.50;99716.19;5076675;27;45355;-64
2021/12/09 03:05:54;;;;;;;;;1.50;1.50;;;;;4.21;88.28;99732.72;5078093;27;45454;-62
2021/12/09 03:08:32;;;;;;;;;4.00;1.00;;;;;4.19;88.11;99734.50;5077490;27;46162;-62
2021/12/09 03:10:57;;;;;;;;;3.00;2.00;;;;;4.18;88.77;99732.78;5077920;27;45386;-63
2021/12/09 03:13:22;;;;;;;;;3.25;2.00;;;;;4.16;88.38;99738.94;5078850;27;45321;-63
2021/12/09 03:15:48;;;;;;;;;1.00;1.00;;;;;4.12;88.56;99737.34;5084408;27;45317;-61
2021/12/09 03:18:13;;;;;;;;;1.50;1.00;;;;;4.11;88.85;99733.84;5084749;27;45278;-62
2021/12/09 03:20:41;;;;;;;;;1.00;0.75;;;;;4.15;88.46;99725.06;5085614;27;45310;-63
2021/12/09 03:23:06;;;;;;;;;1.00;1.00;;;;;4.16;88.18;99728.53;5079072;27;45196;-62
2021/12/09 03:25:32;;;;;;;;;2.00;1.00;;;;;4.15;88.88;99734.63;5079991;27;45530;-62
2021/12/09 03:27:57;;;;;;;;;2.75;1.00;;;;;4.15;88.19;99726.84;5079572;27;45228;-66
2021/12/09 03:30:24;;;;;;;;;3.00;1.00;;;;;4.11;88.62;99723.44;5080170;27;45302;-62
2021/12/09 03:32:50;;;;;;;;;1.75;1.00;;;;;4.12;88.56;99727.75;5078096;27;45389;-65
2021/12/09 03:35:15;;;;;;;;;2.00;1.00;;;;;4.13;88.13;99739.03;5079492;27;45695;-63
2021/12/09 03:37:41;;;;;;;;;2.25;1.50;;;;;4.15;88.54;99729.44;5080763;27;46141;-62
2021/12/09 03:40:07;;;;;;;;;3.75;1.75;;;;;4.18;88.57;99735.41;5079515;27;45342;-63
2021/12/09 03:42:34;;;;;;;;;2.00;1.00;;;;;4.15;88.08;99730.28;5079489;27;45366;-61
2021/12/09 03:45:00;;;;;;;;;2.50;1.00;;;;;4.14;88.11;99725.13;5080274;28;45346;-65
2021/12/09 03:47:29;;;;;;;;;0.25;0.25;;;;;4.24;88.17;99745.66;5077927;27;46002;-63
2021/12/09 03:49:55;;;;;;;;;1.00;0.25;;;;;4.28;88.63;99742.97;5078009;27;45218;-65
2021/12/09 03:52:21;;;;;;;;;2.50;0.00;;;;;4.27;88.34;99747.31;5078178;27;45310;-62
2021/12/09 03:54:46;;;;;;;;;3.00;1.50;;;;;4.33;88.76;99746.31;5078347;28;45392;-62
2021/12/09 03:57:13;;;;;;;;;4.25;2.00;;;;;4.34;88.76;99743.66;5076953;28;45540;-62
2021/12/09 03:59:40;;;;;;;;;1.00;1.00;;;;;4.42;88.51;99755.59;5076837;27;45405;-61
2021/12/09 04:02:08;;;;;;;;;6.00;3.00;;;;;4.46;88.34;99755.47;5077136;27;45280;-64
2021/12/09 04:04:33;;;;;;;;;2.00;1.75;;;;;4.44;87.74;99740.78;5077599;27;45540;-63
2021/12/09 04:06:59;;;;;;;;;1.00;1.00;;;;;4.48;87.84;99766.72;5077471;27;45320;-61
2021/12/09 04:09:25;;;;;;;;;1.00;1.00;;;;;4.47;87.91;99764.13;5080407;27;45315;-62
2021/12/09 04:11:51;;;;;;;;;3.00;1.00;;;;;4.43;87.97;99766.00;5086061;27;45459;-61
2021/12/09 04:14:19;;;;;;;;;6.50;2.00;;;;;4.39;87.33;99766.97;5080051;27;45468;-60
2021/12/09 04:16:44;;;;;;;;;1.50;1.00;;;;;4.41;87.69;99766.91;5076973;27;46225;-65
2021/12/09 04:19:11;;;;;;;;;4.00;2.00;;;;;4.37;87.90;99769.59;5076193;27;45256;-64
2021/12/09 04:21:37;;;;;;;;;2.00;2.00;;;;;4.38;87.88;99770.47;5076429;27;45241;-65
2021/12/09 04:24:08;;;;;;;;;1.00;1.00;;;;;4.38;87.96;99762.66;5076803;27;45242;-63
2021/12/09 04:26:36;;;;;;;;;1.00;1.00;;;;;4.42;87.98;99760.81;5076462;27;46544;-64
2021/12/09 04:29:03;;;;;;;;;5.00;1.00;;;;;4.41;87.72;99765.19;5076405;27;45256;-64
2021/12/09 04:31:29;;;;;;;;;2.50;0.75;;;;;4.46;87.77;99772.84;5076265;27;45226;-64
2021/12/09 04:33:54;;;;;;;;;5.25;3.75;;;;;4.46;88.55;99762.44;5076552;27;45271;-63
2021/12/09 04:36:21;;;;;;;;;4.00;2.00;;;;;4.47;87.62;99762.41;5076531;27;45280;-63
2021/12/09 04:38:48;;;;;;;;;1.50;1.25;;;;;4.50;87.85;99780.53;5076963;27;45389;-63
2021/12/09 04:41:14;;;;;;;;;3.00;1.00;;;;;4.52;87.14;99768.34;5076403;27;45477;-63
2021/12/09 04:43:42;;;;;;;;;4.00;2.00;;;;;4.52;87.02;99765.72;5076449;27;45364;-65
2021/12/09 04:46:08;;;;;;;;;1.00;1.00;;;;;4.51;86.89;99771.84;5076080;27;46386;-65
2021/12/09 04:48:34;;;;;;;;;3.50;0.00;;;;;4.56;86.92;99773.44;5076245;27;45175;-63
2021/12/09 04:50:59;;;;;;;;;1.00;1.00;;;;;4.56;86.95;99774.28;5074730;27;45335;-63
2021/12/09 04:53:24;;;;;;;;;2.00;2.00;;;;;4.55;86.60;99775.19;5076299;27;45579;-63
2021/12/09 04:55:50;;;;;;;;;2.50;1.50;;;;;4.52;86.51;99768.34;5075919;27;45248;-60
2021/12/09 04:58:15;;;;;;;;;2.00;1.00;;;;;4.52;86.61;99768.34;5074751;27;45282;-62
2021/12/09 05:00:41;;;;;;;;;3.00;1.00;;;;;4.55;86.93;99783.00;5081047;27;45365;-62
2021/12/09 05:03:10;;;;;;;;;2.00;2.00;;;;;4.56;86.72;99773.44;5076619;28;46028;-61
2021/12/09 05:05:49;;;;;;;;;2.00;2.00;;;;;4.57;87.22;99772.56;5076144;27;46271;-61
2021/12/09 05:08:19;;;;;;;;;2.50;1.75;;;;;4.60;87.25;99772.47;5075622;27;45338;-62
2021/12/09 05:11:07;;;;;;;;;3.25;1.50;;;;;4.61;86.96;99776.78;5076238;27;45426;-61
2021/12/09 05:13:35;;;;;;;;;1.25;1.25;;;;;4.61;86.86;99776.78;5076583;27;45247;-63
2021/12/09 05:16:02;;;;;;;;;4.50;2.00;;;;;4.60;86.86;99778.50;5075769;27;45384;-65
2021/12/09 05:18:31;;;;;;;;;4.50;1.50;;;;;4.60;86.68;99773.31;5075617;27;45390;-63
2021/12/09 05:20:57;;;;;;;;;7.00;2.00;;;;;4.60;86.69;99764.66;5075476;27;45246;-63
2021/12/09 05:23:23;;;;;;;;;3.75;3.00;;;;;4.60;87.20;99767.25;5075911;27;45485;-64
2021/12/09 05:25:49;;;;;;;;;4.25;2.50;;;;;4.62;86.46;99768.06;5076101;28;46200;-63
2021/12/09 05:28:16;;;;;;;;;2.75;1.50;;;;;4.62;86.72;99778.50;5079238;27;45335;-63
2021/12/09 05:33:28;;;;;;;;;4.00;2.75;;;;;4.59;86.83;99773.38;5079100;27;45341;-63
2021/12/09 05:35:54;;;;;;;;;5.75;2.00;;;;;4.61;86.54;99782.00;5078721;27;45403;-67
2021/12/09 05:38:20;;;;;;;;;5.50;2.00;;;;;4.57;86.59;99776.00;5079173;27;45536;-64
2021/12/09 05:40:46;;;;;;;;;6.00;2.00;;;;;4.53;86.81;99770.03;5079046;27;45414;-64
2021/12/09 05:43:12;;;;;;;;;5.00;3.25;;;;;4.58;86.55;99776.88;5079854;27;45361;-64
2021/12/09 05:45:38;;;;;;;;;5.50;4.00;;;;;4.49;86.26;99773.63;5082464;27;45981;-65
2021/12/09 05:48:04;;;;;;;;;4.00;2.00;;;;;4.56;86.26;99786.47;5100428;27;45347;-65
2021/12/09 05:50:29;;;;;;;;;2.75;2.75;;;;;4.57;86.29;99788.19;5084749;27;45242;-64
2021/12/09 05:52:55;;;;;;;;;5.25;3.00;;;;;4.58;87.40;99790.72;5078914;27;45623;-62
2021/12/09 05:55:20;;;;;;;;;4.00;2.00;;;;;4.60;86.74;99798.50;5078716;27;45409;-61
2021/12/09 05:57:45;;;;;;;;;6.50;3.50;;;;;4.62;86.61;99797.56;5078742;27;45414;-62
2021/12/09 06:00:11;;;;;;;;;3.50;3.50;;;;;4.62;86.43;99799.31;5077534;27;45328;-62
2021/12/09 06:02:37;;;;;;;;;3.25;3.25;;;;;4.62;86.92;99794.94;5079219;27;45272;-64
2021/12/09 06:05:04;;;;;;;;;9.75;9.00;;;;;4.65;86.67;99801.84;5078862;27;46307;-64
2021/12/09 06:07:29;;;;;;;;;7.25;5.00;;;;;4.66;86.57;99799.19;5079233;27;45290;-62
2021/12/09 06:09:55;;;;;;;;;2.25;2.00;;;;;4.59;85.82;99789.00;5077783;27;45333;-65
2021/12/09 06:12:22;;;;;;;;;3.00;3.00;;;;;4.66;86.78;99803.56;5078330;27;45327;-66
2021/12/09 06:14:47;;;;;;;;;5.25;3.75;;;;;4.66;86.45;99801.78;5080769;27;45511;-64
2021/12/09 06:17:12;;;;;;;;;4.50;3.00;;;;;4.62;86.79;99797.56;5089775;27;45128;-64
2021/12/09 06:19:38;;;;;;;;;6.25;3.50;;;;;4.62;86.29;99794.13;5090922;27;45518;-64
2021/12/09 06:22:03;;;;;;;;;4.00;4.00;;;;;4.60;85.97;99801.13;5085713;27;45275;-66
2021/12/09 06:24:29;;;;;;;;;6.50;4.00;;;;;4.57;86.17;99812.47;5081661;27;45282;-63
2021/12/09 06:26:54;;;;;;;;;5.00;5.00;;;;;4.53;86.16;99811.72;5079499;27;45326;-63
2021/12/09 06:29:19;;;;;;;;;4.00;3.25;;;;;4.52;86.06;99814.34;5082172;27;45341;-64
2021/12/09 06:31:45;;;;;;;;;11.25;6.00;;;;;4.49;86.63;99817.91;5083621;27;45422;-65
2021/12/09 06:34:12;;;;;;;;;6.00;4.00;;;;;4.41;86.20;99809.44;5080956;27;45432;-65
2021/12/09 06:36:39;;;;;;;;;6.50;4.00;;;;;4.44;86.86;99822.38;5079692;27;45536;-64
2021/12/09 06:39:05;;;;;;;;;7.00;7.00;;;;;4.37;87.15;99816.47;5080597;27;45342;-63
2021/12/09 06:41:31;;;;;;;;;7.00;5.00;;;;;4.41;87.39;99819.00;5079923;27;45207;-65
2021/12/09 06:43:57;;;;;;;;;6.25;3.75;;;;;4.38;86.83;99823.38;5081072;27;46330;-62
2021/12/09 06:46:22;;;;;;;;;6.50;6.00;;;;;4.34;86.63;99823.53;5081248;27;45322;-65
2021/12/09 06:48:47;;;;;;;;;5.50;5.50;;;;;4.32;87.45;99825.31;5078377;27;45652;-65
2021/12/09 06:51:13;;;;;;;;;7.00;5.00;;;;;4.32;87.32;99843.53;5078120;27;45322;-63
2021/12/09 06:53:38;;;;;;;;;10.75;6.00;;;;;4.29;87.81;99838.41;5076871;27;46501;-63
2021/12/09 06:56:05;;;;;;;;;6.00;4.75;;;;;4.30;87.40;99845.34;5077932;27;45369;-63
2021/12/09 06:58:30;;;;;;;;;5.00;4.50;;;;;4.24;87.25;99844.59;5077782;28;45407;-60
2021/12/09 07:00:57;;;;;;;;;7.00;5.00;;;;;4.22;87.74;99835.94;5078214;27;45315;-63
2021/12/09 07:03:23;;;;;;;;;7.75;5.00;;;;;4.19;87.23;99843.84;5078862;27;46794;-62
2021/12/09 07:05:50;;;;;;;;;9.00;4.00;;;;;4.16;87.30;99837.88;5077431;27;45664;-62
2021/12/09 07:08:16;;;;;;;;;8.75;6.00;;;;;4.11;87.59;99845.78;5078879;27;45303;-63
2021/12/09 07:10:42;;;;;;;;;5.00;5.00;;;;;4.11;87.71;99850.16;5078471;27;45496;-62
2021/12/09 07:13:08;;;;;;;;;8.00;7.00;;;;;4.08;88.21;99854.53;5077937;27;47016;-64
2021/12/09 07:15:34;;;;;;;;;9.25;6.75;;;;;4.13;88.07;99851.81;5077390;27;45338;-63
2021/12/09 07:18:00;;;;;;;;;6.00;4.25;;;;;4.07;87.91;99832.00;5079296;27;45240;-66
2021/12/09 07:20:27;;;;;;;;;5.00;5.00;;;;;4.04;88.00;99826.00;5079642;28;45520;-69
2021/12/09 07:22:54;;;;;;;;;11.00;6.00;;;;;3.93;87.89;99810.69;5079250;27;45428;-68
2021/12/09 07:25:21;;;;;;;;;11.50;6.75;;;;;4.15;88.05;99844.81;5077539;27;45381;-62
2021/12/09 07:27:47;;;;;;;;;70.00;53.25;;;;;4.08;87.95;99841.53;5076974;27;45433;-63
2021/12/09 07:30:14;;;;;;;;;7.75;6.00;;;;;4.07;87.37;99847.63;5077567;27;45181;-66
2021/12/09 07:32:40;;;;;;;;;10.75;7.00;;;;;4.09;87.90;99853.63;5076832;27;47993;-63
2021/12/09 07:35:07;;;;;;;;;6.75;6.00;;;;;4.12;88.03;99849.25;5077579;27;46076;-61
2021/12/09 07:37:34;;;;;;;;;13.00;7.25;;;;;4.16;88.55;99854.31;5077892;27;45374;-62
2021/12/09 07:39:59;;;;;;;;;12.50;6.50;;;;;4.18;87.98;99849.94;5077007;28;45364;-63
2021/12/09 07:42:25;;;;;;;;;10.00;8.00;;;;;4.19;87.57;99849.03;5077255;27;45409;-62
2021/12/09 07:44:51;;;;;;;;;7.00;7.00;;;;;4.19;87.63;99848.19;5077499;28;45284;-61
2021/12/09 07:47:17;;;;;;;;;10.00;7.25;;;;;4.20;88.23;99844.69;5076967;27;45416;-60
2021/12/09 07:49:44;;;;;;;;;9.50;7.25;;;;;4.26;88.25;99847.16;5056648;28;45491;-62
2021/12/09 07:52:10;;;;;;;;;12.50;8.50;;;;;4.29;87.91;99849.66;5064571;28;45986;-60
2021/12/09 07:54:35;;;;;;;;;10.50;9.00;;;;;4.30;87.76;99846.16;5075900;27;45682;-65
2021/12/09 07:57:01;;;;;;;;;6.75;5.25;;;;;4.33;87.86;99850.47;5074979;27;45438;-61
2021/12/09 07:59:27;;;;;;;;;14.00;11.00;;;;;4.35;86.99;99856.47;5075949;28;45585;-62
2021/12/09 08:01:52;;;;;;;;;12.00;7.00;;;;;4.34;86.88;99845.19;5077045;27;46238;-61
2021/12/09 08:04:17;;;;;;;;;6.25;5.75;;;;;4.25;86.82;99835.03;5080152;27;45341;-62
2021/12/09 08:06:43;;;;;;;;;9.50;9.00;;;;;4.28;87.49;99847.13;5077650;27;45390;-62
2021/12/09 08:09:09;;;;;;;;;9.50;7.75;;;;;4.26;87.23;99849.75;5076929;27;45405;-66
2021/12/09 08:11:38;;;;;;;;;8.25;6.00;;;;;4.27;87.08;99850.63;5076300;27;45470;-63
2021/12/09 08:14:11;;;;;;;;;8.00;6.00;;;;;4.33;86.95;99850.47;5075883;27;45311;-67
2021/12/09 08:16:38;;;;;;;;;7.50;5.25;;;;;4.36;86.41;99847.78;5076154;28;45353;-65
2021/12/09 08:19:09;;;;;;;;;6.00;6.00;;;;;4.35;86.32;99859.09;5075429;27;45374;-61
2021/12/09 08:21:36;;;;;;;;;9.50;6.00;;;;;4.33;85.98;99866.91;5074855;28;46560;-64
2021/12/09 08:24:04;;;;;;;;;8.75;6.25;;;;;4.31;86.61;99862.66;5073670;27;45538;-63
2021/12/09 08:26:30;;;;;;;;;11.00;6.50;;;;;4.22;85.80;99853.31;5075158;27;45457;-63
2021/12/09 08:28:56;;;;;;;;;8.00;5.25;;;;;4.28;86.40;99862.75;5076357;27;45532;-63
2021/12/09 08:31:22;;;;;;;;;9.00;6.25;;;;;4.29;86.47;99860.09;5076329;28;45425;-63
2021/12/09 08:33:47;;;;;;;;;8.75;5.75;;;;;4.30;86.55;99859.19;5076461;27;45384;-64
2021/12/09 08:36:12;;;;;;;;;9.50;7.25;;;;;4.33;86.58;99860.88;5076601;27;45266;-64
2021/12/09 08:38:38;;;;;;;;;9.00;7.00;;;;;4.32;86.21;99852.19;5076186;27;45434;-64
2021/12/09 08:41:04;;;;;;;;;6.00;6.00;;;;;4.30;85.79;99851.38;5075707;27;47065;-63
2021/12/09 08:43:30;;;;;;;;;10.50;8.00;;;;;4.33;86.71;99851.31;5076088;27;45480;-64
2021/12/09 08:45:56;;;;;;;;;14.50;12.00;;;;;4.35;87.02;99859.09;5076086;27;45431;-62
2021/12/09 08:48:23;;;;;;;;;9.00;7.25;;;;;4.39;86.60;99855.50;5077450;28;45330;-64
2021/12/09 08:50:49;;;;;;;;;11.00;8.25;;;;;4.38;85.47;99870.25;5079291;27;47151;-62
2021/12/09 08:53:18;;;;;;;;;11.75;8.50;;;;;4.35;85.85;99875.56;5078714;28;45271;-63
2021/12/09 08:55:44;;;;;;;;;14.25;12.75;;;;;4.35;86.22;99877.31;5078665;27;45378;-63
2021/12/09 08:58:12;;;;;;;;;13.00;10.25;;;;;4.38;86.36;99885.03;5076932;27;45368;-62
2021/12/09 09:00:38;;;;;;;;;15.75;10.25;;;;;4.33;86.68;99876.50;5081130;27;46981;-63
2021/12/09 09:03:04;;;;;;;;;21.50;18.75;;;;;4.40;86.69;99885.84;5090732;27;45255;-64
2021/12/09 09:05:32;;;;;;;;;17.75;14.00;;;;;4.43;86.39;99895.31;5086440;27;45315;-62
2021/12/09 09:07:58;;;;;;;;;16.50;13.50;;;;;4.43;85.93;99898.81;5082253;27;45435;-63
2021/12/09 09:10:26;;;;;;;;;14.25;11.00;;;;;4.46;85.74;99900.47;5082217;27;46182;-65
2021/12/09 09:12:53;;;;;;;;;11.00;6.00;;;;;4.48;86.38;99901.28;5081102;27;45276;-64
2021/12/09 09:15:20;;;;;;;;;10.00;6.75;;;;;4.55;86.30;99905.41;5083531;27;45301;-62
2021/12/09 09:17:47;;;;;;;;;14.00;10.00;;;;;4.57;86.01;99905.41;5082922;27;45473;-63
2021/12/09 09:20:16;;;;;;;;;15.25;10.50;;;;;4.60;86.11;99915.72;5082057;27;45580;-63
2021/12/09 09:22:41;;;;;;;;;12.25;11.50;;;;;4.59;85.48;99920.06;5082372;27;45561;-63
2021/12/09 09:25:14;;;;;;;;;13.50;11.00;;;;;4.61;86.00;99915.69;5082316;27;45397;-62
2021/12/09 09:27:40;;;;;;;;;14.75;11.00;;;;;4.64;86.13;99910.38;5081144;28;45460;-63
2021/12/09 09:30:07;;;;;;;;;11.00;7.50;;;;;4.67;85.80;99914.69;5080655;28;46916;-61
2021/12/09 09:32:34;;;;;;;;;8.00;5.75;;;;;4.66;85.19;99910.38;5082619;27;45309;-63
2021/12/09 09:34:59;;;;;;;;;11.00;10.25;;;;;4.67;85.86;99918.13;5082921;27;45335;-63
2021/12/09 09:37:25;;;;;;;;;10.75;9.75;;;;;4.69;85.93;99920.69;5084239;27;45306;-65
2021/12/09 09:39:50;;;;;;;;;7.75;7.75;;;;;4.69;86.15;99918.09;5082970;27;47403;-63
2021/12/09 09:42:34;;;;;;;;;14.25;10.00;;;;;4.73;85.96;99918.84;5083729;27;45369;-62
2021/12/09 09:45:00;;;;;;;;;11.50;8.75;;;;;4.81;85.63;99929.97;5083029;28;45287;-63
2021/12/09 09:47:27;;;;;;;;;11.75;7.50;;;;;4.82;85.03;99931.66;5087346;27;45219;-63
2021/12/09 09:49:54;;;;;;;;;11.50;8.50;;;;;4.85;85.58;99935.91;5085223;27;46148;-64
2021/12/09 09:52:19;;;;;;;;;6.50;6.25;;;;;4.88;85.40;99938.44;5084020;27;45327;-60
2021/12/09 09:54:46;;;;;;;;;11.50;9.75;;;;;4.88;85.17;99936.72;5082076;27;45335;-62
2021/12/09 09:57:12;;;;;;;;;11.75;8.25;;;;;4.92;85.51;99942.69;5081355;27;45318;-63
2021/12/09 09:59:42;;;;;;;;;10.75;7.00;;;;;4.95;85.01;99935.66;5082283;28;46273;-61
2021/12/09 10:02:09;;;;;;;;;11.75;11.75;;;;;5.02;85.45;99943.28;5082171;27;45368;-62
2021/12/09 10:04:45;;;;;;;;;13.25;8.75;;;;;5.09;85.53;99940.47;5082532;27;45342;-62
2021/12/09 10:07:12;;;;;;;;;8.75;7.00;;;;;5.17;84.70;99931.56;5083304;27;45512;-63
2021/12/09 10:09:39;;;;;;;;;19.25;16.00;;;;;5.22;84.48;99938.38;5083185;27;45303;-63
2021/12/09 10:12:05;;;;;;;;;14.75;10.00;;;;;5.29;84.35;99935.59;5081168;27;45180;-63
2021/12/09 10:14:33;;;;;;;;;12.25;7.50;;;;;5.35;84.28;99931.06;5077225;27;45461;-63
2021/12/09 10:17:08;;;;;;;;;13.75;13.75;;;;;5.40;84.47;99929.19;5080025;27;45523;-63
2021/12/09 10:19:36;;;;;;;;;10.75;7.50;;;;;5.48;84.61;99926.31;5079071;27;46425;-64
2021/12/09 10:22:17;;;;;;;;;8.75;7.00;;;;;5.51;84.09;99909.75;5080744;27;45365;-63
2021/12/09 10:24:46;;;;;;;;;10.00;5.50;;;;;5.66;84.07;99911.88;5081974;27;45339;-65
2021/12/09 10:27:29;;;;;;;;;11.25;7.50;;;;;5.72;84.29;99908.22;5079695;27;45275;-64
2021/12/09 10:30:00;;;;;;;;;5.50;5.00;;;;;5.78;83.89;99899.34;5078638;27;46145;-62
2021/12/09 10:32:31;;;;;;;;;14.00;9.00;;;;;5.81;83.67;99891.44;5094055;27;45490;-64
2021/12/09 10:35:12;;;;;;;;;7.00;5.25;;;;;5.89;83.32;99899.88;5078882;27;45325;-64
2021/12/09 10:37:40;;;;;;;;;13.75;11.50;;;;;5.91;82.86;99892.84;5082833;27;45340;-63
2021/12/09 10:40:12;;;;;;;;;14.50;9.00;;;;;6.04;83.29;99893.34;5080326;27;46971;-64
2021/12/09 10:42:44;;;;;;;;;8.75;7.50;;;;;6.12;83.14;99887.84;5078546;27;45426;-64
2021/12/09 10:45:11;;;;;;;;;12.00;7.50;;;;;6.18;82.49;99885.03;5077522;27;45263;-63
2021/12/09 10:50:18;;;;;;;;;17.75;9.25;;;;;6.31;81.63;99877.66;5077431;27;45236;-63
2021/12/09 10:52:50;;;;;;;;;8.25;7.25;;;;;6.37;82.40;99874.84;5077319;27;45441;-63
2021/12/09 10:55:35;;;;;;;;;11.75;8.00;;;;;6.22;82.01;99844.84;5076314;27;45458;-63
2021/12/09 10:58:05;;;;;;;;;15.50;10.25;;;;;6.49;81.57;99875.31;5077601;27;45244;-64
2021/12/09 11:00:53;;;;;;;;;8.25;6.00;;;;;6.53;81.33;99863.84;5092645;27;46585;-63
2021/12/09 11:03:37;;;;;;;;;13.00;10.00;;;;;6.62;81.34;99873.97;5075503;27;45436;-63
2021/12/09 11:06:09;;;;;;;;;5.75;5.00;;;;;6.65;81.83;99868.66;5078066;27;45458;-64
2021/12/09 11:08:41;;;;;;;;;15.25;12.50;;;;;6.66;80.86;99866.91;5079749;27;45504;-64
2021/12/09 11:11:13;;;;;;;;;8.75;6.25;;;;;6.68;81.13;99865.09;5081006;27;45246;-62
2021/12/09 11:13:40;;;;;;;;;17.25;14.00;;;;;6.69;81.07;99865.03;5078259;27;45320;-63
2021/12/09 11:16:07;;;;;;;;;8.50;6.75;;;;;6.72;80.40;99864.06;5077885;27;45274;-64
2021/12/09 11:18:45;;;;;;;;;27.75;20.00;;;;;6.75;81.12;99863.09;5078408;27;45422;-66
2021/12/09 11:21:21;;;;;;;;;14.50;10.50;;;;;6.80;80.44;99855.94;5081274;27;46127;-63
2021/12/09 11:23:56;;;;;;;;;18.75;15.50;;;;;6.76;79.12;99838.66;5079246;28;45998;-65
2021/12/09 11:26:34;;;;;;;;;29.75;21.00;;;;;6.92;80.00;99844.19;5081630;27;45345;-63
2021/12/09 11:29:05;;;;;;;;;16.25;13.50;;;;;6.94;80.67;99852.84;5078190;27;45365;-62
2021/12/09 11:31:34;;;;;;;;;11.00;11.00;;;;;6.90;79.48;99825.97;5078472;27;46347;-63
2021/12/09 11:34:09;;;;;;;;;10.25;9.25;;;;;7.11;80.80;99854.84;5078826;27;45504;-62
2021/12/09 11:36:57;;;;;;;;;8.75;7.50;;;;;7.16;79.69;99848.50;5077561;27;45429;-64
2021/12/09 11:39:31;;;;;;;;;11.25;8.00;;;;;7.23;80.24;99846.53;5078922;27;45296;-61
2021/12/09 11:42:05;;;;;;;;;8.50;8.00;;;;;7.24;79.76;99839.50;5078045;27;47066;-61
2021/12/09 11:44:32;;;;;;;;;7.50;6.25;;;;;7.34;78.33;99842.63;5077002;27;45335;-61
2021/12/09 11:46:58;;;;;;;;;10.00;7.00;;;;;7.36;78.34;99841.66;5078708;27;45327;-62